sensor_id;sensor_type;location;lat;lon;timestamp;pressure;altitude;pressure_sealevel;temperature;humidity
15308;BME280;7755;52.208;6.964;2023-05-12T00:02:17;101197.56;;;13.58;100.00
15308;BME280;7755;52.208;6.964;2023-05-12T00:06:19;101193.16;;;13.57;100.00
15308;BME280;7755;52.208;6.964;2023-05-12T00:10:22;101190.19;;;13.58;100.00
15308;BME280;7755;52.208;6.964;2023-05-12T00:14:27;101197.03;;;13.61;100.00
15308;BME280;7755;52.208;6.964;2023-05-12T00:18:30;101192.34;;;13.56;100.00
15308;BME280;7755;52.208;6.964;2023-05-12T00:22:33;101194.91;;;13.63;100.00
15308;BME280;7755;52.208;6.964;2023-05-12T00:26:36;101199.88;;;13.66;100.00
15308;BME280;7755;52.208;6.964;2023-05-12T00:30:40;101196.66;;;13.69;100.00
15308;BME280;7755;52.208;6.964;2023-05-12T00:34:43;101193.00;;;13.63;100.00
15308;BME280;7755;52.208;6.964;2023-05-12T00:38:46;101190.84;;;13.65;100.00
15308;BME280;7755;52.208;6.964;2023-05-12T00:42:49;101178.91;;;13.72;100.00
15308;BME280;7755;52.208;6.964;2023-05-12T00:46:53;101183.13;;;13.79;100.00
15308;BME280;7755;52.208;6.964;2023-05-12T00:50:57;101178.75;;;13.78;100.00
15308;BME280;7755;52.208;6.964;2023-05-12T00:55:01;101173.03;;;13.80;100.00
15308;BME280;7755;52.208;6.964;2023-05-12T00:59:06;101169.97;;;13.76;100.00
15308;BME280;7755;52.208;6.964;2023-05-12T01:03:14;101171.53;;;13.72;100.00
15308;BME280;7755;52.208;6.964;2023-05-12T01:07:21;101170.81;;;13.77;100.00
15308;BME280;7755;52.208;6.964;2023-05-12T01:11:24;101179.56;;;13.79;100.00
15308;BME280;7755;52.208;6.964;2023-05-12T01:15:27;101179.56;;;13.79;100.00
15308;BME280;7755;52.208;6.964;2023-05-12T01:19:39;101174.63;;;13.76;100.00
15308;BME280;7755;52.208;6.964;2023-05-12T01:23:48;101181.31;;;13.85;100.00
15308;BME280;7755;52.208;6.964;2023-05-12T01:27:53;101181.88;;;13.87;100.00
15308;BME280;7755;52.208;6.964;2023-05-12T01:31:57;101180.31;;;13.91;100.00
15308;BME280;7755;52.208;6.964;2023-05-12T01:36:00;101178.97;;;13.93;100.00
15308;BME280;7755;52.208;6.964;2023-05-12T01:40:04;101191.81;;;13.93;100.00
15308;BME280;7755;52.208;6.964;2023-05-12T01:44:10;101192.72;;;13.99;100.00
15308;BME280;7755;52.208;6.964;2023-05-12T01:48:13;101186.81;;;14.07;100.00
15308;BME280;7755;52.208;6.964;2023-05-12T01:52:16;101189.28;;;14.08;100.00
15308;BME280;7755;52.208;6.964;2023-05-12T01:56:19;101190.38;;;14.07;100.00
15308;BME280;7755;52.208;6.964;2023-05-12T02:00:23;101197.25;;;14.10;100.00
15308;BME280;7755;52.208;6.964;2023-05-12T02:04:30;101188.25;;;14.09;100.00
15308;BME280;7755;52.208;6.964;2023-05-12T02:08:34;101187.47;;;14.14;100.00
15308;BME280;7755;52.208;6.964;2023-05-12T02:12:38;101192.09;;;14.13;100.00
15308;BME280;7755;52.208;6.964;2023-05-12T02:16:42;101189.63;;;14.12;100.00
15308;BME280;7755;52.208;6.964;2023-05-12T02:20:45;101194.84;;;14.13;100.00
15308;BME280;7755;52.208;6.964;2023-05-12T02:24:48;101194.34;;;14.16;100.00
15308;BME280;7755;52.208;6.964;2023-05-12T02:28:51;101189.19;;;14.20;100.00
15308;BME280;7755;52.208;6.964;2023-05-12T02:32:55;101187.00;;;14.22;100.00
15308;BME280;7755;52.208;6.964;2023-05-12T02:36:58;101195.81;;;14.24;100.00
15308;BME280;7755;52.208;6.964;2023-05-12T02:41:01;101193.09;;;14.24;100.00
15308;BME280;7755;52.208;6.964;2023-05-12T02:45:05;101189.75;;;14.22;100.00
15308;BME280;7755;52.208;6.964;2023-05-12T02:49:09;101179.91;;;14.21;100.00
15308;BME280;7755;52.208;6.964;2023-05-12T02:53:12;101187.78;;;14.17;100.00
15308;BME280;7755;52.208;6.964;2023-05-12T02:57:15;101182.59;;;14.16;100.00
15308;BME280;7755;52.208;6.964;2023-05-12T03:01:18;101182.31;;;14.17;100.00
15308;BME280;7755;52.208;6.964;2023-05-12T03:05:23;101192.44;;;14.17;100.00
15308;BME280;7755;52.208;6.964;2023-05-12T03:09:26;101189.38;;;14.13;100.00
15308;BME280;7755;52.208;6.964;2023-05-12T03:13:29;101191.84;;;14.15;100.00
15308;BME280;7755;52.208;6.964;2023-05-12T03:17:32;101194.84;;;14.13;100.00
15308;BME280;7755;52.208;6.964;2023-05-12T03:21:36;101192.63;;;14.10;100.00
15308;BME280;7755;52.208;6.964;2023-05-12T03:25:39;101192.63;;;14.10;100.00
15308;BME280;7755;52.208;6.964;2023-05-12T03:29:42;101191.78;;;14.10;100.00
15308;BME280;7755;52.208;6.964;2023-05-12T03:33:45;101188.47;;;14.08;100.00
15308;BME280;7755;52.208;6.964;2023-05-12T03:37:50;101182.16;;;14.07;100.00
15308;BME280;7755;52.208;6.964;2023-05-12T03:41:53;101192.28;;;14.07;100.00
15308;BME280;7755;52.208;6.964;2023-05-12T03:45:55;101186.25;;;14.05;100.00
15308;BME280;7755;52.208;6.964;2023-05-12T03:49:59;101200.47;;;14.07;100.00
15308;BME280;7755;52.208;6.964;2023-05-12T03:54:05;101205.94;;;14.07;100.00
15308;BME280;7755;52.208;6.964;2023-05-12T03:58:08;101194.44;;;14.05;100.00
15308;BME280;7755;52.208;6.964;2023-05-12T04:02:11;101201.81;;;14.04;100.00
15308;BME280;7755;52.208;6.964;2023-05-12T04:06:14;101209.78;;;14.06;100.00
15308;BME280;7755;52.208;6.964;2023-05-12T04:10:18;101205.94;;;14.07;100.00
15308;BME280;7755;52.208;6.964;2023-05-12T04:14:22;101216.88;;;14.07;100.00
15308;BME280;7755;52.208;6.964;2023-05-12T04:18:40;101229.25;;;14.09;100.00
15308;BME280;7755;52.208;6.964;2023-05-12T04:22:43;101230.81;;;14.05;100.00
15308;BME280;7755;52.208;6.964;2023-05-12T04:26:48;101237.13;;;14.06;100.00
15308;BME280;7755;52.208;6.964;2023-05-12T04:30:51;101245.97;;;14.13;100.00
15308;BME280;7755;52.208;6.964;2023-05-12T04:34:57;101244.63;;;14.15;100.00
15308;BME280;7755;52.208;6.964;2023-05-12T04:38:59;101251.19;;;14.14;100.00
15308;BME280;7755;52.208;6.964;2023-05-12T04:43:05;101251.19;;;14.14;100.00
15308;BME280;7755;52.208;6.964;2023-05-12T04:47:08;101248.22;;;14.16;100.00
15308;BME280;7755;52.208;6.964;2023-05-12T04:51:12;101257.00;;;14.18;100.00
15308;BME280;7755;52.208;6.964;2023-05-12T04:55:15;101268.00;;;14.23;100.00
15308;BME280;7755;52.208;6.964;2023-05-12T04:59:20;101266.94;;;14.24;100.00
15308;BME280;7755;52.208;6.964;2023-05-12T05:03:25;101270.22;;;14.26;100.00
15308;BME280;7755;52.208;6.964;2023-05-12T05:07:29;101280.44;;;14.31;100.00
15308;BME280;7755;52.208;6.964;2023-05-12T05:11:33;101279.66;;;14.35;100.00
15308;BME280;7755;52.208;6.964;2023-05-12T05:15:38;101295.84;;;14.37;100.00
15308;BME280;7755;52.208;6.964;2023-05-12T05:19:41;101299.44;;;14.42;100.00
15308;BME280;7755;52.208;6.964;2023-05-12T05:23:59;101306.13;;;14.46;100.00
15308;BME280;7755;52.208;6.964;2023-05-12T05:28:02;101304.84;;;14.54;100.00
15308;BME280;7755;52.208;6.964;2023-05-12T05:32:08;101308.50;;;14.60;100.00
15308;BME280;7755;52.208;6.964;2023-05-12T05:36:12;101312.63;;;14.62;100.00
15308;BME280;7755;52.208;6.964;2023-05-12T05:40:15;101315.72;;;14.66;100.00
15308;BME280;7755;52.208;6.964;2023-05-12T05:44:18;101319.59;;;14.70;100.00
15308;BME280;7755;52.208;6.964;2023-05-12T05:48:23;101322.13;;;14.77;100.00
15308;BME280;7755;52.208;6.964;2023-05-12T05:52:26;101335.13;;;14.86;100.00
15308;BME280;7755;52.208;6.964;2023-05-12T05:56:28;101330.88;;;14.95;100.00
15308;BME280;7755;52.208;6.964;2023-05-12T06:00:33;101340.53;;;15.03;100.00
15308;BME280;7755;52.208;6.964;2023-05-12T06:04:37;101344.81;;;15.16;100.00
15308;BME280;7755;52.208;6.964;2023-05-12T06:08:41;101346.91;;;15.30;100.00
15308;BME280;7755;52.208;6.964;2023-05-12T06:12:44;101347.25;;;15.34;100.00
15308;BME280;7755;52.208;6.964;2023-05-12T06:16:48;101363.53;;;15.46;100.00
15308;BME280;7755;52.208;6.964;2023-05-12T06:20:52;101360.97;;;15.61;100.00
15308;BME280;7755;52.208;6.964;2023-05-12T06:24:56;101374.75;;;15.66;100.00
15308;BME280;7755;52.208;6.964;2023-05-12T06:28:58;101372.44;;;15.80;100.00
15308;BME280;7755;52.208;6.964;2023-05-12T06:33:01;101370.09;;;15.94;100.00
15308;BME280;7755;52.208;6.964;2023-05-12T06:37:05;101370.22;;;16.09;100.00
15308;BME280;7755;52.208;6.964;2023-05-12T06:41:08;101377.41;;;16.15;100.00
15308;BME280;7755;52.208;6.964;2023-05-12T06:45:11;101377.50;;;16.25;100.00
15308;BME280;7755;52.208;6.964;2023-05-12T06:49:14;101377.19;;;16.22;100.00
15308;BME280;7755;52.208;6.964;2023-05-12T06:53:18;101384.88;;;16.20;100.00
15308;BME280;7755;52.208;6.964;2023-05-12T06:57:25;101391.22;;;16.25;100.00
15308;BME280;7755;52.208;6.964;2023-05-12T07:01:28;101393.72;;;16.32;100.00
15308;BME280;7755;52.208;6.964;2023-05-12T07:05:32;101397.34;;;16.37;100.00
15308;BME280;7755;52.208;6.964;2023-05-12T07:09:36;101392.78;;;16.48;100.00
15308;BME280;7755;52.208;6.964;2023-05-12T07:13:40;101396.13;;;16.55;100.00
15308;BME280;7755;52.208;6.964;2023-05-12T07:17:43;101400.34;;;16.68;100.00
15308;BME280;7755;52.208;6.964;2023-05-12T07:21:46;101411.41;;;16.78;100.00
15308;BME280;7755;52.208;6.964;2023-05-12T07:25:50;101409.81;;;16.82;100.00
15308;BME280;7755;52.208;6.964;2023-05-12T07:29:53;101413.09;;;16.84;100.00
15308;BME280;7755;52.208;6.964;2023-05-12T07:33:56;101417.84;;;16.94;100.00
15308;BME280;7755;52.208;6.964;2023-05-12T07:37:59;101413.19;;;17.00;100.00
15308;BME280;7755;52.208;6.964;2023-05-12T07:42:05;101419.03;;;17.13;100.00
15308;BME280;7755;52.208;6.964;2023-05-12T07:46:08;101411.75;;;17.34;100.00
15308;BME280;7755;52.208;6.964;2023-05-12T07:50:11;101419.50;;;17.58;100.00
15308;BME280;7755;52.208;6.964;2023-05-12T07:54:14;101416.84;;;17.78;100.00
15308;BME280;7755;52.208;6.964;2023-05-12T07:58:18;101418.81;;;17.93;100.00
15308;BME280;7755;52.208;6.964;2023-05-12T08:02:20;101417.19;;;18.17;100.00
15308;BME280;7755;52.208;6.964;2023-05-12T08:06:23;101425.72;;;18.41;100.00
15308;BME280;7755;52.208;6.964;2023-05-12T08:10:26;101420.53;;;18.50;100.00
15308;BME280;7755;52.208;6.964;2023-05-12T08:14:31;101429.59;;;18.61;100.00
15308;BME280;7755;52.208;6.964;2023-05-12T08:18:34;101428.22;;;18.73;100.00
15308;BME280;7755;52.208;6.964;2023-05-12T08:22:37;101432.91;;;18.78;100.00
15308;BME280;7755;52.208;6.964;2023-05-12T08:26:40;101437.31;;;18.74;100.00
15308;BME280;7755;52.208;6.964;2023-05-12T08:30:45;101438.41;;;18.83;98.26
15308;BME280;7755;52.208;6.964;2023-05-12T08:34:47;101436.19;;;18.95;97.42
15308;BME280;7755;52.208;6.964;2023-05-12T08:38:50;101438.94;;;19.11;96.33
15308;BME280;7755;52.208;6.964;2023-05-12T08:43:02;101444.69;;;19.24;95.81
15308;BME280;7755;52.208;6.964;2023-05-12T08:47:10;101452.00;;;19.49;94.13
15308;BME280;7755;52.208;6.964;2023-05-12T08:51:13;101442.53;;;19.81;92.00
15308;BME280;7755;52.208;6.964;2023-05-12T08:55:18;101448.44;;;20.08;89.93
15308;BME280;7755;52.208;6.964;2023-05-12T08:59:22;101452.72;;;20.25;87.01
15308;BME280;7755;52.208;6.964;2023-05-12T09:03:27;101444.91;;;20.37;85.11
15308;BME280;7755;52.208;6.964;2023-05-12T09:07:30;101448.69;;;20.51;81.63
15308;BME280;7755;52.208;6.964;2023-05-12T09:11:33;101457.38;;;20.68;81.13
15308;BME280;7755;52.208;6.964;2023-05-12T09:15:41;101452.72;;;20.93;82.49
15308;BME280;7755;52.208;6.964;2023-05-12T09:19:47;101447.81;;;21.14;82.86
15308;BME280;7755;52.208;6.964;2023-05-12T09:23:57;101444.97;;;21.19;82.32
15308;BME280;7755;52.208;6.964;2023-05-12T09:28:00;101453.53;;;21.22;80.73
15308;BME280;7755;52.208;6.964;2023-05-12T09:32:03;101461.31;;;21.20;77.05
15308;BME280;7755;52.208;6.964;2023-05-12T09:36:08;101457.22;;;21.13;76.37
15308;BME280;7755;52.208;6.964;2023-05-12T09:40:11;101458.88;;;21.14;77.46
15308;BME280;7755;52.208;6.964;2023-05-12T09:44:17;101457.16;;;21.18;77.53
15308;BME280;7755;52.208;6.964;2023-05-12T09:48:20;101465.28;;;21.09;76.41
15308;BME280;7755;52.208;6.964;2023-05-12T09:52:26;101466.88;;;21.15;76.81
15308;BME280;7755;52.208;6.964;2023-05-12T09:56:30;101463.88;;;21.12;75.40
15308;BME280;7755;52.208;6.964;2023-05-12T10:00:35;101464.28;;;21.24;74.67
15308;BME280;7755;52.208;6.964;2023-05-12T10:05:02;101460.91;;;21.32;75.45
15308;BME280;7755;52.208;6.964;2023-05-12T10:09:13;101464.09;;;21.44;73.02
15308;BME280;7755;52.208;6.964;2023-05-12T10:13:17;101464.03;;;21.49;72.49
15308;BME280;7755;52.208;6.964;2023-05-12T10:17:23;101466.97;;;21.58;71.78
15308;BME280;7755;52.208;6.964;2023-05-12T10:21:27;101462.28;;;21.77;71.76
15308;BME280;7755;52.208;6.964;2023-05-12T10:25:32;101460.66;;;21.95;70.58
15308;BME280;7755;52.208;6.964;2023-05-12T10:29:36;101456.06;;;22.10;66.57
15308;BME280;7755;52.208;6.964;2023-05-12T10:33:40;101466.09;;;22.24;66.74
15308;BME280;7755;52.208;6.964;2023-05-12T10:37:45;101457.22;;;22.41;64.34
15308;BME280;7755;52.208;6.964;2023-05-12T10:41:59;101462.66;;;22.65;64.81
15308;BME280;7755;52.208;6.964;2023-05-12T10:46:07;101455.34;;;22.69;61.18
15308;BME280;7755;52.208;6.964;2023-05-12T10:50:10;101452.41;;;22.79;62.53
15308;BME280;7755;52.208;6.964;2023-05-12T10:54:19;101447.66;;;22.99;62.66
15308;BME280;7755;52.208;6.964;2023-05-12T10:58:23;101442.94;;;23.13;61.75
15308;BME280;7755;52.208;6.964;2023-05-12T11:02:27;101437.63;;;23.30;60.51
15308;BME280;7755;52.208;6.964;2023-05-12T11:06:34;101440.81;;;23.65;60.21
15308;BME280;7755;52.208;6.964;2023-05-12T11:10:40;101436.19;;;23.96;58.98
15308;BME280;7755;52.208;6.964;2023-05-12T11:14:45;101434.69;;;24.27;56.55
15308;BME280;7755;52.208;6.964;2023-05-12T11:18:59;101433.38;;;24.46;57.55
15308;BME280;7755;52.208;6.964;2023-05-12T11:23:02;101438.69;;;24.88;54.20
15308;BME280;7755;52.208;6.964;2023-05-12T11:27:06;101431.00;;;25.16;52.32
15308;BME280;7755;52.208;6.964;2023-05-12T11:31:16;101423.72;;;25.46;52.26
15308;BME280;7755;52.208;6.964;2023-05-12T11:35:20;101428.38;;;25.68;52.60
15308;BME280;7755;52.208;6.964;2023-05-12T11:39:24;101424.16;;;25.88;51.62
15308;BME280;7755;52.208;6.964;2023-05-12T11:43:28;101425.75;;;25.71;49.47
15308;BME280;7755;52.208;6.964;2023-05-12T11:47:33;101424.19;;;25.96;49.05
15308;BME280;7755;52.208;6.964;2023-05-12T11:51:40;101428.25;;;25.99;47.55
15308;BME280;7755;52.208;6.964;2023-05-12T11:55:47;101416.28;;;26.07;47.00
15308;BME280;7755;52.208;6.964;2023-05-12T11:59:55;101418.09;;;26.37;46.86
15308;BME280;7755;52.208;6.964;2023-05-12T12:04:00;101421.03;;;26.58;45.90
15308;BME280;7755;52.208;6.964;2023-05-12T12:08:05;101418.53;;;26.83;45.50
15308;BME280;7755;52.208;6.964;2023-05-12T12:12:09;101426.81;;;27.09;46.58
15308;BME280;7755;52.208;6.964;2023-05-12T12:16:12;101424.28;;;27.25;44.55
15308;BME280;7755;52.208;6.964;2023-05-12T12:20:17;101412.53;;;27.40;44.88
15308;BME280;7755;52.208;6.964;2023-05-12T12:24:19;101435.41;;;27.33;43.21
15308;BME280;7755;52.208;6.964;2023-05-12T12:28:23;101421.38;;;27.42;43.63
15308;BME280;7755;52.208;6.964;2023-05-12T12:32:25;101418.50;;;27.59;43.11
15308;BME280;7755;52.208;6.964;2023-05-12T12:36:31;101423.47;;;27.54;41.52
15308;BME280;7755;52.208;6.964;2023-05-12T12:40:34;101429.72;;;27.21;42.64
15308;BME280;7755;52.208;6.964;2023-05-12T12:44:37;101420.38;;;27.17;41.01
15308;BME280;7755;52.208;6.964;2023-05-12T12:48:41;101420.22;;;27.43;41.84
15308;BME280;7755;52.208;6.964;2023-05-12T12:52:45;101419.56;;;27.46;38.61
15308;BME280;7755;52.208;6.964;2023-05-12T12:56:49;101416.00;;;27.37;38.88
15308;BME280;7755;52.208;6.964;2023-05-12T13:00:52;101414.97;;;27.41;38.11
15308;BME280;7755;52.208;6.964;2023-05-12T13:04:55;101403.72;;;27.59;38.13
15308;BME280;7755;52.208;6.964;2023-05-12T13:08:59;101408.88;;;27.78;39.54
15308;BME280;7755;52.208;6.964;2023-05-12T13:13:02;101395.78;;;27.40;36.05
15308;BME280;7755;52.208;6.964;2023-05-12T13:17:04;101403.63;;;27.46;38.39
15308;BME280;7755;52.208;6.964;2023-05-12T13:21:08;101406.44;;;27.67;37.01
15308;BME280;7755;52.208;6.964;2023-05-12T13:25:12;101403.63;;;27.46;36.88
15308;BME280;7755;52.208;6.964;2023-05-12T13:29:16;101413.25;;;27.28;38.40
15308;BME280;7755;52.208;6.964;2023-05-12T13:33:19;101417.38;;;26.84;37.44
15308;BME280;7755;52.208;6.964;2023-05-12T13:37:22;101410.22;;;26.48;37.61
15308;BME280;7755;52.208;6.964;2023-05-12T13:41:26;101407.25;;;26.27;38.50
15308;BME280;7755;52.208;6.964;2023-05-12T13:45:29;101407.28;;;25.93;39.81
15308;BME280;7755;52.208;6.964;2023-05-12T13:49:32;101409.03;;;25.63;40.72
15308;BME280;7755;52.208;6.964;2023-05-12T13:53:35;101403.41;;;25.45;41.48
15308;BME280;7755;52.208;6.964;2023-05-12T13:57:50;101400.75;;;25.31;41.90
15308;BME280;7755;52.208;6.964;2023-05-12T14:01:52;101399.25;;;25.17;41.92
15308;BME280;7755;52.208;6.964;2023-05-12T14:05:55;101401.88;;;24.91;41.24
15308;BME280;7755;52.208;6.964;2023-05-12T14:09:58;101401.53;;;24.84;42.69
15308;BME280;7755;52.208;6.964;2023-05-12T14:14:03;101398.56;;;24.80;42.95
15308;BME280;7755;52.208;6.964;2023-05-12T14:18:06;101395.63;;;24.85;42.08
15308;BME280;7755;52.208;6.964;2023-05-12T14:22:09;101392.66;;;24.73;42.72
15308;BME280;7755;52.208;6.964;2023-05-12T14:26:23;101381.38;;;25.09;41.64
15308;BME280;7755;52.208;6.964;2023-05-12T14:30:28;101385.47;;;25.12;41.57
15308;BME280;7755;52.208;6.964;2023-05-12T14:34:31;101391.09;;;25.29;41.00
15308;BME280;7755;52.208;6.964;2023-05-12T14:38:34;101389.34;;;25.50;39.75
15308;BME280;7755;52.208;6.964;2023-05-12T14:42:37;101379.03;;;25.51;36.42
15308;BME280;7755;52.208;6.964;2023-05-12T14:46:41;101401.63;;;25.58;37.33
15308;BME280;7755;52.208;6.964;2023-05-12T14:50:45;101393.75;;;25.51;35.30
15308;BME280;7755;52.208;6.964;2023-05-12T14:54:47;101404.19;;;25.28;36.08
15308;BME280;7755;52.208;6.964;2023-05-12T14:58:50;101404.66;;;25.22;36.67
15308;BME280;7755;52.208;6.964;2023-05-12T15:02:54;101416.28;;;25.15;37.63
15308;BME280;7755;52.208;6.964;2023-05-12T15:06:57;101416.53;;;25.05;37.89
15308;BME280;7755;52.208;6.964;2023-05-12T15:11:00;101412.38;;;24.94;38.28
15308;BME280;7755;52.208;6.964;2023-05-12T15:15:04;101409.38;;;24.82;37.69
15308;BME280;7755;52.208;6.964;2023-05-12T15:19:10;101406.19;;;24.66;38.84
15308;BME280;7755;52.208;6.964;2023-05-12T15:23:13;101411.34;;;24.59;39.39
15308;BME280;7755;52.208;6.964;2023-05-12T15:27:16;101410.44;;;24.41;40.09
15308;BME280;7755;52.208;6.964;2023-05-12T15:31:19;101414.91;;;24.28;40.20
15308;BME280;7755;52.208;6.964;2023-05-12T15:35:24;101413.13;;;24.10;40.44
15308;BME280;7755;52.208;6.964;2023-05-12T15:39:28;101409.25;;;23.97;40.93
15308;BME280;7755;52.208;6.964;2023-05-12T15:43:31;101408.53;;;24.05;41.64
15308;BME280;7755;52.208;6.964;2023-05-12T15:47:35;101407.81;;;24.22;41.56
15308;BME280;7755;52.208;6.964;2023-05-12T15:51:39;101404.28;;;24.30;41.63
15308;BME280;7755;52.208;6.964;2023-05-12T15:55:42;101404.38;;;24.39;40.71
15308;BME280;7755;52.208;6.964;2023-05-12T15:59:44;101410.16;;;24.51;40.85
15308;BME280;7755;52.208;6.964;2023-05-12T16:03:48;101422.88;;;24.66;39.44
15308;BME280;7755;52.208;6.964;2023-05-12T16:07:53;101417.13;;;24.62;39.42
15308;BME280;7755;52.208;6.964;2023-05-12T16:11:56;101415.44;;;24.53;39.12
15308;BME280;7755;52.208;6.964;2023-05-12T16:15:59;101418.81;;;24.27;37.62
15308;BME280;7755;52.208;6.964;2023-05-12T16:20:02;101423.41;;;24.09;38.36
15308;BME280;7755;52.208;6.964;2023-05-12T16:24:07;101411.78;;;24.07;37.91
15308;BME280;7755;52.208;6.964;2023-05-12T16:28:11;101421.38;;;24.01;37.54
15308;BME280;7755;52.208;6.964;2023-05-12T16:32:21;101417.06;;;23.95;37.42
15308;BME280;7755;52.208;6.964;2023-05-12T16:36:24;101412.56;;;23.99;37.46
15308;BME280;7755;52.208;6.964;2023-05-12T16:40:28;101415.13;;;23.95;38.30
15308;BME280;7755;52.208;6.964;2023-05-12T16:44:32;101416.97;;;24.00;38.69
15308;BME280;7755;52.208;6.964;2023-05-12T16:48:35;101432.03;;;23.85;38.68
15308;BME280;7755;52.208;6.964;2023-05-12T16:52:38;101418.66;;;23.87;39.14
15308;BME280;7755;52.208;6.964;2023-05-12T16:56:42;101421.22;;;23.84;39.51
15308;BME280;7755;52.208;6.964;2023-05-12T17:00:45;101430.50;;;23.79;39.37
15308;BME280;7755;52.208;6.964;2023-05-12T17:04:48;101434.41;;;23.78;39.94
15308;BME280;7755;52.208;6.964;2023-05-12T17:08:52;101437.31;;;23.73;39.80
15308;BME280;7755;52.208;6.964;2023-05-12T17:12:56;101433.38;;;23.74;40.83
15308;BME280;7755;52.208;6.964;2023-05-12T17:17:01;101438.31;;;23.63;40.81
15308;BME280;7755;52.208;6.964;2023-05-12T17:21:04;101443.16;;;23.58;41.54
15308;BME280;7755;52.208;6.964;2023-05-12T17:25:08;101437.22;;;23.51;41.17
15308;BME280;7755;52.208;6.964;2023-05-12T17:29:12;101441.00;;;23.55;41.42
15308;BME280;7755;52.208;6.964;2023-05-12T17:33:15;101441.41;;;23.48;41.59
15308;BME280;7755;52.208;6.964;2023-05-12T17:37:19;101449.75;;;23.34;42.04
15308;BME280;7755;52.208;6.964;2023-05-12T17:41:21;101453.44;;;23.30;42.02
15308;BME280;7755;52.208;6.964;2023-05-12T17:45:26;101453.72;;;23.14;41.15
15308;BME280;7755;52.208;6.964;2023-05-12T17:49:29;101451.03;;;23.09;41.80
15308;BME280;7755;52.208;6.964;2023-05-12T17:53:33;101457.94;;;23.12;41.75
15308;BME280;7755;52.208;6.964;2023-05-12T17:57:36;101457.72;;;23.08;41.47
15308;BME280;7755;52.208;6.964;2023-05-12T18:01:41;101462.25;;;23.04;41.54
15308;BME280;7755;52.208;6.964;2023-05-12T18:05:45;101462.84;;;23.01;41.92
15308;BME280;7755;52.208;6.964;2023-05-12T18:09:49;101472.41;;;22.95;41.55
15308;BME280;7755;52.208;6.964;2023-05-12T18:13:52;101472.06;;;22.83;42.20
15308;BME280;7755;52.208;6.964;2023-05-12T18:17:56;101483.69;;;22.66;42.31
15308;BME280;7755;52.208;6.964;2023-05-12T18:22:00;101476.47;;;22.51;42.76
15308;BME280;7755;52.208;6.964;2023-05-12T18:26:09;101480.50;;;22.40;43.15
15308;BME280;7755;52.208;6.964;2023-05-12T18:30:13;101480.44;;;22.26;43.54
15308;BME280;7755;52.208;6.964;2023-05-12T18:34:20;101482.31;;;22.12;44.01
15308;BME280;7755;52.208;6.964;2023-05-12T18:38:55;101486.47;;;21.91;44.52
15308;BME280;7755;52.208;6.964;2023-05-12T18:42:59;101493.09;;;21.71;45.41
15308;BME280;7755;52.208;6.964;2023-05-12T18:47:03;101493.00;;;21.57;45.54
15308;BME280;7755;52.208;6.964;2023-05-12T18:51:07;101493.44;;;21.40;45.78
15308;BME280;7755;52.208;6.964;2023-05-12T18:55:32;101501.38;;;21.23;45.99
15308;BME280;7755;52.208;6.964;2023-05-12T18:59:34;101501.53;;;21.08;46.95
15308;BME280;7755;52.208;6.964;2023-05-12T19:03:39;101506.13;;;20.88;47.41
15308;BME280;7755;52.208;6.964;2023-05-12T19:07:47;101516.78;;;20.71;47.36
15308;BME280;7755;52.208;6.964;2023-05-12T19:11:50;101523.84;;;20.53;48.07
15308;BME280;7755;52.208;6.964;2023-05-12T19:15:56;101517.84;;;20.36;48.70
15308;BME280;7755;52.208;6.964;2023-05-12T19:20:00;101528.41;;;20.24;49.13
15308;BME280;7755;52.208;6.964;2023-05-12T19:24:05;101525.72;;;20.08;49.76
15308;BME280;7755;52.208;6.964;2023-05-12T19:28:09;101530.22;;;19.94;50.37
15308;BME280;7755;52.208;6.964;2023-05-12T19:32:13;101546.56;;;19.80;51.12
15308;BME280;7755;52.208;6.964;2023-05-12T19:36:17;101551.56;;;19.63;51.68
15308;BME280;7755;52.208;6.964;2023-05-12T19:40:21;101546.91;;;19.48;52.05
15308;BME280;7755;52.208;6.964;2023-05-12T19:44:24;101555.75;;;19.35;52.93
15308;BME280;7755;52.208;6.964;2023-05-12T19:48:32;101564.88;;;19.25;52.57
15308;BME280;7755;52.208;6.964;2023-05-12T19:52:45;101562.69;;;19.12;52.89
15308;BME280;7755;52.208;6.964;2023-05-12T19:56:50;101563.50;;;19.02;53.31
15308;BME280;7755;52.208;6.964;2023-05-12T20:01:23;101562.41;;;18.93;53.55
15308;BME280;7755;52.208;6.964;2023-05-12T20:05:36;101566.00;;;18.84;53.92
15308;BME280;7755;52.208;6.964;2023-05-12T20:14:30;101576.13;;;18.58;55.06
15308;BME280;7755;52.208;6.964;2023-05-12T20:18:45;101573.91;;;18.49;55.57
15308;BME280;7755;52.208;6.964;2023-05-12T20:22:52;101585.19;;;18.43;56.12
15308;BME280;7755;52.208;6.964;2023-05-12T20:26:55;101580.50;;;18.38;56.39
15308;BME280;7755;52.208;6.964;2023-05-12T20:31:08;101590.63;;;18.27;56.95
15308;BME280;7755;52.208;6.964;2023-05-12T20:35:11;101585.38;;;18.21;57.37
15308;BME280;7755;52.208;6.964;2023-05-12T20:39:28;101592.78;;;18.10;57.80
15308;BME280;7755;52.208;6.964;2023-05-12T20:43:43;101603.22;;;18.03;58.32
15308;BME280;7755;52.208;6.964;2023-05-12T20:48:18;101606.44;;;17.95;59.00
15308;BME280;7755;52.208;6.964;2023-05-12T20:52:50;101605.31;;;17.86;59.53
15308;BME280;7755;52.208;6.964;2023-05-12T20:57:20;101606.09;;;17.76;60.29
15308;BME280;7755;52.208;6.964;2023-05-12T21:01:49;101617.00;;;17.66;60.78
15308;BME280;7755;52.208;6.964;2023-05-12T21:06:22;101610.34;;;17.57;61.38
15308;BME280;7755;52.208;6.964;2023-05-12T21:10:49;101619.34;;;17.47;61.88
15308;BME280;7755;52.208;6.964;2023-05-12T21:15:21;101615.47;;;17.43;62.22
15308;BME280;7755;52.208;6.964;2023-05-12T21:19:35;101615.66;;;17.31;62.69
15308;BME280;7755;52.208;6.964;2023-05-12T21:23:40;101623.84;;;17.26;63.42
15308;BME280;7755;52.208;6.964;2023-05-12T21:27:43;101624.66;;;17.22;63.69
15308;BME280;7755;52.208;6.964;2023-05-12T21:31:48;101621.31;;;17.14;64.34
15308;BME280;7755;52.208;6.964;2023-05-12T21:35:53;101624.50;;;17.06;65.14